Pickleville, Utah
Current Conditions -  °F | °C
As of 12:51 PM on Thursday 27 Nov 2014 (Local Time) from KLGU Reporting Station
Clear Clear  
Wind Chill: 44°   Ceiling: Unl
Heat Index: 46°   Visibility: 10mi
Dew Point: 34°   Wind: 5mph
Humidity: 63%   Direction: 90°E
Pressure: 30.25"   Gusts: NA
Location:  41.9408°N, 111.433°W
Report Text: KLGU 271951Z AUTO 09004KT 10SM CLR 08/01 A3025 RMK AO2 SLP250 T00780011
Loading
Personal Weather Stations






























Interactive Weather Map New forecast layout! Learn more

10-Day Weather Forecast

Advertisements
Track Severe Weather on mobile